createdAt,value
2019-03-29T00:01:41.866Z,10.97
2019-03-29T00:04:09.821Z,11.80
2019-03-29T00:06:37.847Z,10.37
2019-03-29T00:09:06.717Z,9.00
2019-03-29T00:11:34.787Z,10.73
2019-03-29T00:14:02.767Z,10.93
2019-03-29T00:16:30.746Z,10.57
2019-03-29T00:18:58.706Z,11.10
2019-03-29T00:21:26.721Z,10.70
2019-03-29T00:24:06.129Z,10.57
2019-03-29T00:26:25.538Z,10.37
2019-03-29T00:28:53.702Z,11.30
2019-03-29T00:31:21.661Z,10.80
2019-03-29T00:33:50.077Z,10.80
2019-03-29T00:36:18.177Z,11.03
2019-03-29T00:38:46.161Z,11.10
2019-03-29T00:41:14.126Z,12.03
2019-03-29T00:43:42.236Z,11.17
2019-03-29T00:46:10.217Z,10.47
2019-03-29T00:48:38.176Z,10.97
2019-03-29T00:51:06.184Z,10.83
2019-03-29T00:53:34.136Z,11.67
2019-03-29T00:56:02.442Z,12.23
2019-03-29T00:58:30.398Z,12.00
2019-03-29T01:00:58.371Z,11.27
2019-03-29T01:03:26.822Z,10.10
2019-03-29T01:05:54.776Z,12.43
2019-03-29T01:08:22.767Z,11.60
2019-03-29T01:10:50.712Z,11.90
2019-03-29T01:13:18.709Z,12.33
2019-03-29T01:15:46.651Z,12.60
2019-03-29T01:18:15.247Z,12.13
2019-03-29T01:20:43.208Z,11.40
2019-03-29T01:23:11.176Z,13.07
2019-03-29T01:25:39.107Z,10.40
2019-03-29T01:28:07.101Z,11.67
2019-03-29T01:30:35.207Z,12.27
2019-03-29T01:33:03.307Z,12.27
2019-03-29T01:35:33.287Z,12.30
2019-03-29T01:38:01.267Z,12.23
2019-03-29T01:40:29.182Z,12.07
2019-03-29T01:42:57.191Z,12.20
2019-03-29T01:45:25.237Z,11.77
2019-03-29T01:47:53.267Z,13.10
2019-03-29T01:50:21.169Z,12.33
2019-03-29T01:52:49.141Z,12.90
2019-03-29T01:55:17.153Z,12.67
2019-03-29T01:57:45.145Z,12.00
2019-03-29T02:00:17.378Z,12.33
2019-03-29T02:02:45.352Z,12.13
2019-03-29T02:05:13.289Z,12.53
2019-03-29T02:07:43.222Z,11.33
2019-03-29T02:10:11.336Z,13.00
2019-03-29T02:12:39.323Z,12.00
2019-03-29T02:15:07.698Z,12.67
2019-03-29T02:17:35.847Z,12.23
2019-03-29T02:20:04.427Z,13.20
2019-03-29T02:22:32.417Z,12.80
2019-03-29T02:25:00.445Z,12.87
2019-03-29T02:27:28.602Z,14.20
2019-03-29T02:29:56.637Z,13.63
2019-03-29T02:32:25.157Z,14.03
2019-03-29T02:34:53.617Z,15.07
2019-03-29T02:37:21.587Z,13.73
2019-03-29T02:39:49.559Z,13.33
2019-03-29T02:42:17.506Z,14.33
2019-03-29T02:44:45.472Z,14.30
2019-03-29T02:47:13.418Z,14.30
2019-03-29T02:49:41.398Z,13.00
2019-03-29T02:52:09.415Z,14.33
2019-03-29T02:54:37.693Z,13.73
2019-03-29T02:57:05.744Z,13.43
2019-03-29T02:59:33.727Z,13.60
2019-03-29T03:02:01.664Z,13.87
2019-03-29T03:04:29.649Z,15.37
2019-03-29T03:06:57.668Z,14.10
2019-03-29T03:09:25.739Z,14.30
2019-03-29T03:11:53.785Z,13.53
2019-03-29T03:14:22.316Z,13.90
2019-03-29T03:16:50.289Z,15.33
2019-03-29T03:19:18.339Z,15.33
2019-03-29T03:21:46.285Z,15.57
2019-03-29T03:24:14.259Z,14.73
2019-03-29T03:26:42.243Z,15.30
2019-03-29T03:29:10.224Z,15.73
2019-03-29T03:31:38.216Z,13.03
2019-03-29T03:34:06.305Z,14.03
2019-03-29T03:36:34.261Z,13.60
2019-03-29T03:39:02.570Z,14.87
2019-03-29T03:41:30.553Z,14.07
2019-03-29T03:43:59.094Z,14.93
2019-03-29T03:46:27.021Z,14.53
2019-03-29T03:48:55.034Z,14.10
2019-03-29T03:51:23.101Z,12.87
2019-03-29T03:53:51.389Z,14.40
2019-03-29T03:56:19.450Z,14.83
2019-03-29T03:58:47.770Z,12.90
2019-03-29T04:01:15.718Z,14.47
2019-03-29T04:03:43.910Z,13.77
2019-03-29T04:06:11.828Z,13.63
2019-03-29T04:08:39.817Z,13.93
2019-03-29T04:11:07.753Z,14.50
2019-03-29T04:13:35.703Z,13.10
2019-03-29T04:16:04.804Z,13.87
2019-03-29T04:18:32.742Z,13.70
2019-03-29T04:21:00.733Z,14.30
2019-03-29T04:23:28.698Z,14.50
2019-03-29T04:25:56.692Z,13.47
2019-03-29T04:28:24.627Z,13.03
2019-03-29T04:30:52.622Z,13.97
2019-03-29T04:33:20.570Z,15.17
2019-03-29T04:35:50.200Z,14.03
2019-03-29T04:38:20.496Z,13.13
2019-03-29T04:40:49.116Z,13.90
2019-03-29T04:43:17.077Z,14.53
2019-03-29T04:45:45.172Z,13.93
2019-03-29T04:48:13.114Z,14.73
2019-03-29T04:50:41.101Z,13.73
2019-03-29T04:53:09.121Z,14.33
2019-03-29T04:55:37.174Z,13.77
2019-03-29T04:58:05.393Z,14.23
2019-03-29T05:00:33.382Z,13.97
2019-03-29T05:03:01.347Z,15.10
2019-03-29T05:05:29.347Z,14.30
2019-03-29T05:07:57.277Z,13.97
2019-03-29T05:10:25.262Z,13.73
2019-03-29T05:12:53.648Z,14.97
2019-03-29T05:15:21.719Z,15.00
2019-03-29T05:17:49.757Z,14.10
2019-03-29T05:20:17.783Z,13.90
2019-03-29T05:22:45.706Z,14.33
2019-03-29T05:25:13.717Z,15.03
2019-03-29T05:27:44.317Z,13.10
2019-03-29T05:30:12.400Z,14.40
2019-03-29T05:32:40.347Z,15.07
2019-03-29T05:35:08.337Z,12.93
2019-03-29T05:37:39.024Z,12.50
2019-03-29T05:40:07.031Z,11.80
2019-03-29T05:42:34.956Z,12.17
2019-03-29T05:45:03.078Z,11.43
2019-03-29T05:47:31.002Z,12.23
2019-03-29T05:49:59.031Z,11.80
2019-03-29T05:52:26.972Z,12.13
2019-03-29T05:54:54.976Z,13.17
2019-03-29T05:57:22.972Z,12.50
2019-03-29T05:59:50.892Z,12.13
2019-03-29T06:02:18.912Z,11.40
2019-03-29T06:04:46.842Z,12.17
2019-03-29T06:07:14.934Z,11.63
2019-03-29T06:09:42.878Z,12.50
2019-03-29T06:12:11.240Z,10.97
2019-03-29T06:14:39.181Z,11.53
2019-03-29T06:17:07.192Z,10.63
2019-03-29T06:19:35.181Z,11.13
2019-03-29T06:22:03.237Z,10.37
2019-03-29T06:24:31.187Z,10.47
2019-03-29T06:26:59.197Z,11.20
2019-03-29T06:29:27.176Z,10.27
2019-03-29T06:31:55.172Z,9.87
2019-03-29T06:34:23.108Z,9.97
2019-03-29T06:36:51.478Z,8.90
2019-03-29T06:39:24.087Z,9.47
2019-03-29T06:41:52.086Z,8.83
2019-03-29T06:44:20.080Z,8.90
2019-03-29T06:46:48.112Z,8.87
2019-03-29T06:49:16.151Z,9.53
2019-03-29T06:51:44.186Z,9.43
2019-03-29T06:54:12.176Z,8.93
2019-03-29T06:56:40.232Z,9.40
2019-03-29T06:59:08.185Z,8.57
2019-03-29T07:01:36.141Z,8.50
2019-03-29T07:04:04.101Z,8.80
2019-03-29T07:06:32.104Z,7.80
2019-03-29T07:09:00.053Z,9.00
2019-03-29T07:11:28.052Z,8.90
2019-03-29T07:13:57.713Z,9.47
2019-03-29T07:16:25.908Z,9.13
2019-03-29T07:18:54.361Z,9.07
2019-03-29T07:21:22.489Z,9.53
2019-03-29T07:23:50.501Z,8.13
2019-03-29T07:26:18.559Z,8.93
2019-03-29T07:28:46.492Z,9.00
2019-03-29T07:31:14.989Z,9.07
2019-03-29T07:33:42.949Z,8.90
2019-03-29T07:36:10.962Z,9.27
2019-03-29T07:38:38.906Z,8.37
2019-03-29T07:41:06.898Z,8.43
2019-03-29T07:43:34.879Z,8.57
2019-03-29T07:46:02.865Z,9.30
2019-03-29T07:48:30.877Z,8.67
2019-03-29T07:50:58.808Z,9.13
2019-03-29T07:53:26.815Z,9.70
2019-03-29T07:55:54.960Z,9.77
2019-03-29T07:58:23.140Z,8.93
2019-03-29T08:00:51.249Z,9.70
2019-03-29T08:03:21.197Z,9.47
2019-03-29T08:05:49.441Z,9.40
2019-03-29T08:08:24.120Z,10.53
2019-03-29T08:10:47.720Z,10.33
2019-03-29T08:13:16.254Z,10.17
2019-03-29T08:15:44.703Z,10.27
2019-03-29T08:18:13.223Z,10.13
2019-03-29T08:20:44.128Z,10.57
2019-03-29T08:23:11.466Z,9.67
2019-03-29T08:25:39.641Z,10.30
2019-03-29T08:28:08.001Z,10.00
2019-03-29T08:30:36.181Z,10.43
2019-03-29T08:33:04.503Z,9.93
2019-03-29T08:35:32.721Z,9.73
2019-03-29T08:38:00.881Z,9.03
2019-03-29T08:40:29.150Z,9.70
2019-03-29T08:42:57.681Z,10.10
2019-03-29T08:45:26.902Z,9.77
2019-03-29T08:47:55.040Z,10.57
2019-03-29T08:50:23.242Z,9.00
2019-03-29T08:52:51.481Z,9.37
2019-03-29T08:55:19.606Z,9.70
2019-03-29T08:57:47.781Z,10.57
2019-03-29T09:00:23.644Z,6.63
2019-03-29T09:02:51.941Z,6.40
2019-03-29T09:05:20.101Z,6.10
2019-03-29T09:07:48.603Z,6.70
2019-03-29T09:10:23.921Z,7.03
2019-03-29T09:12:52.228Z,7.07
2019-03-29T09:15:20.501Z,7.17
2019-03-29T09:17:48.660Z,6.57
2019-03-29T09:20:16.887Z,6.80
2019-03-29T09:22:45.022Z,6.27
2019-03-29T09:25:13.182Z,8.17
2019-03-29T09:27:41.385Z,6.73
2019-03-29T09:30:10.681Z,6.87
2019-03-29T09:32:38.865Z,7.20
2019-03-29T09:35:07.133Z,7.20
2019-03-29T09:37:35.411Z,7.07
2019-03-29T09:40:03.961Z,6.63
2019-03-29T09:42:32.182Z,6.83
2019-03-29T09:45:00.424Z,6.93
2019-03-29T09:47:34.327Z,6.90
2019-03-29T09:49:58.898Z,7.23
2019-03-29T09:52:27.103Z,8.23
2019-03-29T09:54:55.301Z,7.27
2019-03-29T09:57:36.951Z,7.90
2019-03-29T09:59:53.601Z,7.30
2019-03-29T10:02:21.821Z,7.90
2019-03-29T10:04:50.041Z,7.50
2019-03-29T10:07:18.263Z,8.63
2019-03-29T10:09:46.440Z,6.87
2019-03-29T10:12:14.561Z,7.03
2019-03-29T10:14:42.889Z,7.27
2019-03-29T10:17:11.002Z,7.60
2019-03-29T10:19:39.161Z,7.73
2019-03-29T10:22:07.420Z,7.53
2019-03-29T10:24:35.561Z,8.23
2019-03-29T10:27:03.764Z,8.90
2019-03-29T10:29:32.021Z,8.30
2019-03-29T10:32:00.482Z,8.27
2019-03-29T10:34:28.603Z,8.33
2019-03-29T10:36:56.682Z,8.80
2019-03-29T10:39:26.511Z,8.47
2019-03-29T10:41:54.730Z,9.67
2019-03-29T10:44:22.861Z,9.07
2019-03-29T10:46:51.085Z,9.03
2019-03-29T10:49:19.231Z,9.53
2019-03-29T10:51:47.385Z,8.97
2019-03-29T10:54:15.547Z,8.70
2019-03-29T10:56:43.682Z,9.93
2019-03-29T10:59:26.295Z,9.90
2019-03-29T11:01:42.122Z,9.33
2019-03-29T11:04:10.361Z,8.67
2019-03-29T11:06:38.461Z,9.53
2019-03-29T11:09:07.561Z,9.70
2019-03-29T11:11:35.683Z,9.63
2019-03-29T11:14:03.969Z,9.20
2019-03-29T11:16:32.063Z,8.37
2019-03-29T11:19:01.381Z,9.50
2019-03-29T11:21:29.462Z,9.33
2019-03-29T11:23:57.620Z,8.83
2019-03-29T11:26:25.821Z,9.57
2019-03-29T11:28:53.941Z,9.17
2019-03-29T11:31:25.414Z,9.27
2019-03-29T11:33:52.629Z,10.17
2019-03-29T11:36:20.801Z,9.57
2019-03-29T11:38:49.078Z,9.73
2019-03-29T11:41:17.202Z,10.40
2019-03-29T11:43:45.360Z,8.77
2019-03-29T11:46:13.539Z,8.50
2019-03-29T11:48:41.659Z,9.23
2019-03-29T11:51:19.079Z,8.73
2019-03-29T11:53:40.800Z,8.60
2019-03-29T11:56:09.898Z,8.87
2019-03-29T11:58:38.097Z,9.50
2019-03-29T12:01:06.281Z,9.63
2019-03-29T12:03:34.319Z,10.17
2019-03-29T12:06:02.578Z,9.97
2019-03-29T12:08:30.779Z,10.07
2019-03-29T12:10:59.298Z,9.63
2019-03-29T12:13:40.480Z,10.90
2019-03-29T12:15:57.538Z,10.37
2019-03-29T12:18:25.598Z,10.50
2019-03-29T12:20:54.509Z,10.67
2019-03-29T12:23:22.922Z,9.97
2019-03-29T12:25:51.258Z,9.83
2019-03-29T12:28:19.398Z,10.03
2019-03-29T12:30:47.598Z,9.67
2019-03-29T12:33:15.678Z,9.40
2019-03-29T12:35:43.918Z,9.27
2019-03-29T12:38:12.079Z,10.23
2019-03-29T12:40:40.398Z,10.40
2019-03-29T12:43:08.524Z,10.77
2019-03-29T12:45:36.758Z,9.70
2019-03-29T12:48:04.818Z,9.10
2019-03-29T12:50:33.168Z,9.43
2019-03-29T12:53:01.373Z,10.10
2019-03-29T12:55:29.548Z,9.67
2019-03-29T12:57:57.687Z,10.53
2019-03-29T13:00:25.946Z,11.07
2019-03-29T13:02:54.108Z,10.70
2019-03-29T13:05:22.267Z,10.37
2019-03-29T13:07:53.165Z,10.30
2019-03-29T13:10:20.575Z,9.43
2019-03-29T13:12:48.649Z,9.80
2019-03-29T13:15:16.836Z,10.93
2019-03-29T13:17:45.467Z,10.47
2019-03-29T13:20:13.754Z,11.20
2019-03-29T13:22:41.895Z,10.67
2019-03-29T13:25:11.328Z,10.73
2019-03-29T13:27:39.547Z,9.50
2019-03-29T13:30:09.626Z,10.77
2019-03-29T13:32:37.826Z,10.80
2019-03-29T13:35:07.412Z,10.90
2019-03-29T13:37:35.344Z,10.13
2019-03-29T13:40:04.782Z,10.80
2019-03-29T13:42:32.747Z,10.10
2019-03-29T13:45:00.752Z,10.30
2019-03-29T13:47:29.146Z,10.80
2019-03-29T13:49:57.091Z,10.60
2019-03-29T13:52:25.112Z,10.17
2019-03-29T13:54:53.099Z,9.90
2019-03-29T13:57:21.185Z,10.97
2019-03-29T13:59:49.157Z,10.03
2019-03-29T14:02:17.140Z,10.57
2019-03-29T14:04:45.107Z,9.13
2019-03-29T14:07:13.111Z,10.20
2019-03-29T14:09:41.308Z,10.43
2019-03-29T14:12:09.402Z,10.03
2019-03-29T14:14:38.702Z,10.97
2019-03-29T14:17:06.951Z,9.97
2019-03-29T14:19:34.897Z,9.77
2019-03-29T14:22:02.901Z,10.73
2019-03-29T14:24:31.043Z,10.30
2019-03-29T14:26:59.175Z,10.17
2019-03-29T14:29:28.162Z,10.60
2019-03-29T14:31:56.167Z,10.50
2019-03-29T14:34:24.132Z,10.00
2019-03-29T14:36:52.217Z,11.07
2019-03-29T14:39:22.005Z,10.93
2019-03-29T14:41:52.042Z,10.60
2019-03-29T14:44:22.160Z,10.43
2019-03-29T14:46:53.758Z,9.53
2019-03-29T14:49:21.887Z,10.20
2019-03-29T14:51:49.952Z,9.37
2019-03-29T14:54:20.616Z,10.23
2019-03-29T14:56:51.175Z,10.50
2019-03-29T14:59:19.282Z,9.67
2019-03-29T15:01:48.033Z,9.47
2019-03-29T15:04:18.029Z,9.87
2019-03-29T15:06:46.094Z,9.63
2019-03-29T15:09:14.176Z,9.70
2019-03-29T15:11:43.647Z,9.53
2019-03-29T15:14:12.442Z,9.73
2019-03-29T15:16:42.339Z,9.73
2019-03-29T15:19:10.454Z,9.47
2019-03-29T15:21:39.952Z,8.97
2019-03-29T15:24:08.065Z,9.73
2019-03-29T15:26:36.177Z,9.80
2019-03-29T15:29:04.769Z,10.07
2019-03-29T15:31:32.812Z,9.90
2019-03-29T15:34:00.827Z,9.00
2019-03-29T15:36:28.937Z,9.73
2019-03-29T15:38:57.924Z,9.33
2019-03-29T15:41:27.144Z,9.07
2019-03-29T15:43:55.348Z,9.87
2019-03-29T15:46:23.411Z,9.90
2019-03-29T15:48:51.557Z,9.73
2019-03-29T15:51:21.045Z,10.30
2019-03-29T15:53:49.157Z,10.20
2019-03-29T15:56:17.245Z,10.47
2019-03-29T15:58:45.287Z,9.93
2019-03-29T16:01:13.332Z,10.97
2019-03-29T16:03:41.472Z,9.67
2019-03-29T16:06:09.537Z,9.90
2019-03-29T16:08:37.652Z,10.73
2019-03-29T16:11:08.987Z,10.40
2019-03-29T16:13:35.826Z,12.17
2019-03-29T16:16:03.997Z,12.40
2019-03-29T16:18:32.645Z,12.17
2019-03-29T16:21:00.688Z,11.33
2019-03-29T16:23:28.792Z,11.50
2019-03-29T16:25:57.397Z,12.60
2019-03-29T16:28:26.562Z,12.83
2019-03-29T16:30:54.653Z,11.23
2019-03-29T16:33:22.788Z,12.90
2019-03-29T16:35:50.752Z,12.20
2019-03-29T16:38:18.870Z,12.17
2019-03-29T16:40:46.967Z,12.40
2019-03-29T16:43:15.117Z,13.03
2019-03-29T16:45:48.019Z,12.33
2019-03-29T16:48:13.857Z,12.23
2019-03-29T16:50:42.012Z,12.67
2019-03-29T16:53:10.122Z,12.83
2019-03-29T16:55:38.265Z,12.07
2019-03-29T16:58:06.354Z,12.27
2019-03-29T17:00:34.599Z,13.23
2019-03-29T17:03:02.878Z,11.80
2019-03-29T17:05:32.218Z,13.17
2019-03-29T17:08:00.547Z,11.93
2019-03-29T17:10:28.772Z,12.47
2019-03-29T17:12:56.912Z,11.23
2019-03-29T17:15:25.203Z,10.80
2019-03-29T17:17:53.648Z,12.53
2019-03-29T17:20:21.964Z,11.83
2019-03-29T17:22:59.772Z,12.00
2019-03-29T17:25:28.126Z,11.70
2019-03-29T17:27:56.232Z,11.83
2019-03-29T17:30:38.073Z,11.57
2019-03-29T17:33:06.247Z,11.70
2019-03-29T17:35:34.477Z,11.03
2019-03-29T17:38:02.889Z,11.37
2019-03-29T17:40:31.292Z,11.77
2019-03-29T17:42:59.507Z,10.90
2019-03-29T17:45:27.883Z,11.70
2019-03-29T17:47:56.385Z,11.07
2019-03-29T17:50:25.399Z,11.93
2019-03-29T17:52:53.999Z,11.50
2019-03-29T17:55:22.399Z,10.90
2019-03-29T17:57:50.804Z,9.93
2019-03-29T18:00:21.248Z,9.80
2019-03-29T18:02:49.700Z,11.43
2019-03-29T18:05:18.301Z,10.53
2019-03-29T18:07:47.101Z,9.30
2019-03-29T18:10:17.155Z,11.60
2019-03-29T18:12:45.768Z,10.00
2019-03-29T18:15:14.539Z,17.57
2019-03-29T18:17:42.974Z,17.07
2019-03-29T18:20:11.795Z,30.60
2019-03-29T18:22:40.399Z,27.50
2019-03-29T18:25:09.289Z,18.63
2019-03-29T18:27:38.870Z,19.00
2019-03-29T18:30:07.815Z,23.97
2019-03-29T18:32:36.409Z,33.00
2019-03-29T18:35:05.454Z,25.97
2019-03-29T18:37:33.899Z,23.63
2019-03-29T18:40:02.595Z,19.00
2019-03-29T18:42:31.519Z,25.57
2019-03-29T18:45:02.694Z,32.30
2019-03-29T18:47:31.204Z,35.43
2019-03-29T18:49:59.651Z,33.30
2019-03-29T18:52:28.445Z,23.77
2019-03-29T18:54:56.976Z,23.83
2019-03-29T18:57:25.545Z,28.03
2019-03-29T18:59:53.960Z,25.33
2019-03-29T19:02:22.476Z,32.17
2019-03-29T19:04:51.034Z,35.63
2019-03-29T19:07:27.674Z,25.77
2019-03-29T19:09:56.202Z,18.57
2019-03-29T19:12:24.689Z,30.40
2019-03-29T19:14:53.212Z,31.20
2019-03-29T19:17:21.705Z,28.77
2019-03-29T19:19:51.484Z,38.50
2019-03-29T19:22:20.119Z,35.80
2019-03-29T19:24:48.679Z,30.83
2019-03-29T19:27:17.078Z,20.53
2019-03-29T19:29:46.289Z,19.67
2019-03-29T19:32:14.799Z,17.77
2019-03-29T19:34:43.244Z,13.63
2019-03-29T19:37:11.643Z,14.80
2019-03-29T19:39:40.226Z,16.87
2019-03-29T19:42:08.719Z,21.97
2019-03-29T19:44:37.289Z,25.93
2019-03-29T19:47:13.328Z,43.20
2019-03-29T19:49:36.140Z,36.33
2019-03-29T19:52:04.699Z,29.57
2019-03-29T19:54:33.219Z,29.20
2019-03-29T19:57:01.834Z,21.90
2019-03-29T19:59:30.375Z,21.93
2019-03-29T20:01:59.044Z,24.40
2019-03-29T20:04:27.525Z,27.13
2019-03-29T20:06:56.049Z,25.23
2019-03-29T20:09:24.540Z,19.67
2019-03-29T20:11:53.107Z,24.93
2019-03-29T20:14:21.635Z,24.80
2019-03-29T20:16:50.184Z,22.87
2019-03-29T20:19:20.226Z,21.03
2019-03-29T20:21:48.759Z,21.33
2019-03-29T20:24:17.285Z,21.63
2019-03-29T20:26:47.274Z,23.63
2019-03-29T20:29:15.857Z,19.73
2019-03-29T20:31:44.430Z,20.27
2019-03-29T20:34:12.905Z,17.37
2019-03-29T20:36:41.418Z,21.60
2019-03-29T20:39:09.925Z,19.33
2019-03-29T20:41:38.377Z,22.80
2019-03-29T20:44:06.785Z,22.13
2019-03-29T20:46:35.309Z,16.93
2019-03-29T20:49:03.700Z,22.33
2019-03-29T20:51:32.239Z,18.83
2019-03-29T20:54:00.662Z,17.67
2019-03-29T20:56:29.215Z,20.97
2019-03-29T20:58:57.634Z,18.90
2019-03-29T21:01:26.175Z,19.63
2019-03-29T21:03:54.745Z,16.50
2019-03-29T21:06:23.264Z,17.63
2019-03-29T21:08:51.674Z,16.53
2019-03-29T21:11:20.235Z,17.33
2019-03-29T21:13:48.884Z,20.57
2019-03-29T21:16:17.545Z,19.60
2019-03-29T21:18:46.715Z,18.60
2019-03-29T21:21:15.240Z,18.00
2019-03-29T21:23:47.035Z,20.93
2019-03-29T21:26:13.820Z,18.13
2019-03-29T21:28:42.275Z,19.33
2019-03-29T21:31:10.815Z,21.00
2019-03-29T21:33:40.956Z,19.20
2019-03-29T21:36:09.669Z,16.50
2019-03-29T21:38:37.985Z,16.13
2019-03-29T21:41:06.420Z,16.00
2019-03-29T21:43:34.544Z,15.70
2019-03-29T21:46:02.805Z,14.60
2019-03-29T21:48:31.009Z,15.00
2019-03-29T21:50:59.113Z,15.00
2019-03-29T21:53:27.344Z,15.30
2019-03-29T21:55:55.590Z,14.77
2019-03-29T21:58:23.728Z,14.77
2019-03-29T22:00:51.920Z,14.97
2019-03-29T22:03:20.060Z,16.40
2019-03-29T22:05:48.145Z,17.87
2019-03-29T22:08:17.963Z,17.73
2019-03-29T22:10:46.022Z,19.73
2019-03-29T22:13:14.050Z,19.53
2019-03-29T22:15:41.964Z,16.17
2019-03-29T22:18:09.961Z,13.70
2019-03-29T22:20:37.889Z,15.67
2019-03-29T22:23:05.895Z,16.23
2019-03-29T22:25:33.840Z,17.60
2019-03-29T22:28:01.829Z,17.27
2019-03-29T22:30:29.815Z,17.93
2019-03-29T22:32:57.834Z,15.90
2019-03-29T22:35:25.835Z,15.50
2019-03-29T22:37:53.822Z,16.60
2019-03-29T22:40:21.765Z,15.97
2019-03-29T22:42:49.750Z,15.33
2019-03-29T22:45:17.724Z,15.00
2019-03-29T22:47:45.706Z,16.87
2019-03-29T22:50:13.755Z,17.20
2019-03-29T22:52:41.739Z,15.07
2019-03-29T22:55:09.777Z,15.40
2019-03-29T22:57:37.831Z,15.67
2019-03-29T23:00:09.855Z,14.63
2019-03-29T23:02:37.939Z,16.00
2019-03-29T23:05:06.780Z,16.50
2019-03-29T23:07:34.764Z,16.60
2019-03-29T23:10:03.056Z,17.50
2019-03-29T23:12:32.057Z,18.47
2019-03-29T23:15:00.007Z,19.57
2019-03-29T23:17:27.997Z,18.13
2019-03-29T23:19:55.922Z,18.73
2019-03-29T23:22:23.961Z,18.23
2019-03-29T23:24:51.892Z,18.30
2019-03-29T23:27:19.907Z,18.30
2019-03-29T23:29:47.861Z,17.73
2019-03-29T23:32:15.831Z,17.93
2019-03-29T23:34:43.747Z,17.17
2019-03-29T23:37:11.693Z,19.97
2019-03-29T23:39:39.711Z,18.03
2019-03-29T23:42:07.687Z,19.10
2019-03-29T23:44:35.711Z,19.00
2019-03-29T23:47:03.674Z,18.53
2019-03-29T23:49:31.686Z,19.27
2019-03-29T23:51:59.647Z,17.37
2019-03-29T23:54:27.646Z,17.80
2019-03-29T23:56:55.653Z,18.67
2019-03-29T23:59:23.651Z,17.73
